createdAt,value
2019-05-14T00:01:16.308Z,103997.28
2019-05-14T00:03:18.721Z,104001.81
2019-05-14T00:05:21.600Z,103994.99
2019-05-14T00:07:23.414Z,103995.86
2019-05-14T00:09:25.940Z,103992.78
2019-05-14T00:11:28.018Z,103985.80
2019-05-14T00:13:32.303Z,103988.74
2019-05-14T00:15:34.781Z,103986.23
2019-05-14T00:17:36.865Z,103980.36
2019-05-14T00:19:41.368Z,103976.19
2019-05-14T00:21:43.212Z,103974.51
2019-05-14T00:23:45.546Z,103964.59
2019-05-14T00:25:47.317Z,103970.98
2019-05-14T00:27:51.856Z,103966.07
2019-05-14T00:29:54.086Z,103963.52
2019-05-14T00:31:56.106Z,103972.55
2019-05-14T00:33:58.571Z,103982.47
2019-05-14T00:36:02.049Z,103979.91
2019-05-14T00:38:04.377Z,103978.87
2019-05-14T00:40:06.507Z,103978.83
2019-05-14T00:42:08.513Z,103980.25
2019-05-14T00:44:10.588Z,103978.05
2019-05-14T00:46:12.887Z,103976.08
2019-05-14T00:48:15.245Z,103973.24
2019-05-14T00:50:16.805Z,103971.52
2019-05-14T00:52:19.069Z,103974.45
2019-05-14T00:54:21.611Z,103982.03
2019-05-14T00:56:23.815Z,103980.01
2019-05-14T00:58:25.973Z,103990.06
2019-05-14T01:00:28.034Z,103984.31
2019-05-14T01:02:31.879Z,103981.47
2019-05-14T01:04:34.211Z,103985.84
2019-05-14T01:06:36.221Z,103978.92
2019-05-14T01:08:38.251Z,103980.00
2019-05-14T01:10:41.747Z,103981.56
2019-05-14T01:12:43.922Z,103984.91
2019-05-14T01:14:46.382Z,103977.14
2019-05-14T01:16:48.734Z,103973.31
2019-05-14T01:18:51.334Z,103976.46
2019-05-14T01:20:53.580Z,103976.70
2019-05-14T01:22:55.759Z,103977.35
2019-05-14T01:24:57.759Z,103977.35
2019-05-14T01:27:01.599Z,103976.73
2019-05-14T01:29:03.965Z,103984.92
2019-05-14T01:31:06.116Z,103980.83
2019-05-14T01:33:08.409Z,103981.01
2019-05-14T01:35:12.031Z,103984.53
2019-05-14T01:37:14.514Z,103989.41
2019-05-14T01:39:16.544Z,103984.98
2019-05-14T01:41:18.688Z,103982.17
2019-05-14T01:43:22.073Z,103985.52
2019-05-14T01:45:28.128Z,103985.11
2019-05-14T01:47:28.349Z,103976.20
2019-05-14T01:49:31.679Z,103978.56
2019-05-14T01:51:33.939Z,103973.55
2019-05-14T01:53:36.288Z,103978.23
2019-05-14T01:55:38.107Z,103974.95
2019-05-14T01:57:42.242Z,103973.40
2019-05-14T01:59:44.553Z,103972.32
2019-05-14T02:01:46.592Z,103970.53
2019-05-14T02:03:48.687Z,103976.48
2019-05-14T02:05:52.124Z,103971.13
2019-05-14T02:07:54.485Z,103975.97
2019-05-14T02:09:56.490Z,103970.56
2019-05-14T02:11:58.837Z,103969.08
2019-05-14T02:14:02.374Z,103975.87
2019-05-14T02:16:04.332Z,103972.36
2019-05-14T02:18:06.553Z,103971.70
2019-05-14T02:20:12.366Z,103962.63
2019-05-14T02:22:14.070Z,103965.26
2019-05-14T02:24:16.229Z,103967.77
2019-05-14T02:26:18.240Z,103962.57
2019-05-14T02:28:22.083Z,103969.08
2019-05-14T02:30:36.046Z,103971.83
2019-05-14T02:32:29.874Z,103967.91
2019-05-14T02:34:32.382Z,103968.13
2019-05-14T02:36:34.401Z,103970.12
2019-05-14T02:38:38.912Z,103962.36
2019-05-14T02:40:40.701Z,103956.72
2019-05-14T02:42:42.930Z,103955.11
2019-05-14T02:44:45.278Z,103949.23
2019-05-14T02:46:50.257Z,103948.15
2019-05-14T02:48:51.650Z,103952.45
2019-05-14T02:50:53.481Z,103949.94
2019-05-14T02:52:55.451Z,103948.75
2019-05-14T02:54:59.715Z,103949.53
2019-05-14T02:57:01.519Z,103944.45
2019-05-14T02:59:05.955Z,103939.73
2019-05-14T03:01:09.438Z,103935.86
2019-05-14T03:03:11.669Z,103930.52
2019-05-14T03:05:13.826Z,103930.52
2019-05-14T03:07:19.160Z,103924.27
2019-05-14T03:09:20.722Z,103926.03
2019-05-14T03:11:22.871Z,103932.06
2019-05-14T03:13:24.965Z,103936.36
2019-05-14T03:15:29.146Z,103939.25
2019-05-14T03:17:30.958Z,103940.80
2019-05-14T03:19:33.311Z,103945.14
2019-05-14T03:21:35.289Z,103939.11
2019-05-14T03:23:39.232Z,103939.34
2019-05-14T03:25:41.556Z,103940.48
2019-05-14T03:27:43.591Z,103939.88
2019-05-14T03:29:45.681Z,103933.77
2019-05-14T03:31:52.466Z,103929.88
2019-05-14T03:33:53.089Z,103935.67
2019-05-14T03:36:01.451Z,103934.45
2019-05-14T03:38:00.388Z,103931.67
2019-05-14T03:40:03.488Z,103922.78
2019-05-14T03:42:09.196Z,103920.58
2019-05-14T03:44:10.707Z,103921.70
2019-05-14T03:46:12.367Z,103924.39
2019-05-14T03:48:14.567Z,103920.74
2019-05-14T03:50:19.196Z,103921.16
2019-05-14T03:52:21.469Z,103920.84
2019-05-14T03:54:23.426Z,103918.23
2019-05-14T03:56:25.877Z,103903.14
2019-05-14T03:58:30.178Z,103904.91
2019-05-14T04:00:51.185Z,103909.12
2019-05-14T04:02:53.730Z,103906.44
2019-05-14T04:04:55.566Z,103905.95
2019-05-14T04:07:00.402Z,103908.21
2019-05-14T04:09:05.118Z,103903.33
2019-05-14T04:11:09.640Z,103897.84
2019-05-14T04:13:13.348Z,103900.11
2019-05-14T04:15:19.070Z,103897.95
2019-05-14T04:17:32.154Z,103900.40
2019-05-14T04:19:29.570Z,103911.85
2019-05-14T04:21:32.592Z,103901.95
2019-05-14T04:23:39.993Z,103907.45
2019-05-14T04:25:42.384Z,103903.73
2019-05-14T04:27:49.389Z,103904.37
2019-05-14T04:29:53.127Z,103897.41
2019-05-14T04:32:00.166Z,103897.84
2019-05-14T04:34:02.514Z,103897.84
2019-05-14T04:36:04.534Z,103893.39
2019-05-14T04:38:09.630Z,103896.88
2019-05-14T04:40:12.630Z,103898.23
2019-05-14T04:42:14.717Z,103896.26
2019-05-14T04:44:19.180Z,103887.30
2019-05-14T04:46:21.032Z,103890.11
2019-05-14T04:48:31.708Z,103889.95
2019-05-14T04:50:29.656Z,103888.70
2019-05-14T04:52:31.423Z,103887.58
2019-05-14T04:54:33.814Z,103890.96
2019-05-14T04:56:40.021Z,103891.52
2019-05-14T04:58:41.509Z,103885.72
2019-05-14T05:00:43.138Z,103877.84
2019-05-14T05:02:49.460Z,103884.89
2019-05-14T05:04:52.165Z,103876.89
2019-05-14T05:06:54.177Z,103875.82
2019-05-14T05:08:56.250Z,103880.05
2019-05-14T05:11:00.124Z,103887.10
2019-05-14T05:13:02.653Z,103885.00
2019-05-14T05:15:04.759Z,103887.16
2019-05-14T05:17:09.170Z,103882.74
2019-05-14T05:19:10.835Z,103878.91
2019-05-14T05:21:12.895Z,103883.22
2019-05-14T05:23:15.215Z,103892.06
2019-05-14T05:25:18.871Z,103886.20
2019-05-14T05:27:21.160Z,103889.35
2019-05-14T05:29:23.493Z,103884.52
2019-05-14T05:31:25.549Z,103884.28
2019-05-14T05:33:29.345Z,103885.39
2019-05-14T05:35:31.996Z,103890.00
2019-05-14T05:37:33.551Z,103892.82
2019-05-14T05:39:35.632Z,103883.00
2019-05-14T05:41:38.514Z,103880.56
2019-05-14T05:43:40.698Z,103873.57
2019-05-14T05:45:43.174Z,103871.95
2019-05-14T05:48:31.451Z,103874.53
2019-05-14T05:50:33.481Z,103872.98
2019-05-14T05:52:35.600Z,103870.58
2019-05-14T05:54:38.525Z,103872.36
2019-05-14T05:56:40.657Z,103869.61
2019-05-14T05:58:42.665Z,103866.05
2019-05-14T06:00:45.698Z,103874.17
2019-05-14T06:02:48.883Z,103877.28
2019-05-14T06:04:51.630Z,103877.77
2019-05-14T06:06:53.849Z,103871.06
2019-05-14T06:08:58.326Z,103875.80
2019-05-14T06:11:01.884Z,103880.54
2019-05-14T06:13:04.097Z,103867.39
2019-05-14T06:15:08.682Z,103873.95
2019-05-14T06:17:10.623Z,103869.39
2019-05-14T06:19:13.062Z,103863.86
2019-05-14T06:21:15.270Z,103867.53
2019-05-14T06:23:18.925Z,103872.14
2019-05-14T06:25:21.351Z,103868.22
2019-05-14T06:27:23.055Z,103869.53
2019-05-14T06:29:25.005Z,103878.45
2019-05-14T06:31:29.067Z,103878.92
2019-05-14T06:33:31.197Z,103889.83
2019-05-14T06:35:33.463Z,103878.63
2019-05-14T06:37:35.599Z,103882.83
2019-05-14T06:39:39.087Z,103886.84
2019-05-14T06:41:42.958Z,103883.01
2019-05-14T06:43:48.620Z,103888.47
2019-05-14T06:45:50.508Z,103884.84
2019-05-14T06:47:53.044Z,103881.34
2019-05-14T06:49:55.340Z,103888.16
2019-05-14T06:51:59.350Z,103882.95
2019-05-14T06:54:01.429Z,103878.25
2019-05-14T06:56:03.481Z,103875.56
2019-05-14T06:58:09.016Z,103881.50
2019-05-14T07:00:11.042Z,103881.80
2019-05-14T07:02:13.459Z,103868.84
2019-05-14T07:04:15.375Z,103868.75
2019-05-14T07:06:18.632Z,103867.09
2019-05-14T07:08:21.379Z,103873.58
2019-05-14T07:10:23.188Z,103876.70
2019-05-14T07:12:25.345Z,103873.77
2019-05-14T07:14:28.293Z,103878.80
2019-05-14T07:16:30.489Z,103873.43
2019-05-14T07:18:45.478Z,103876.42
2019-05-14T07:20:39.120Z,103877.03
2019-05-14T07:22:41.492Z,103884.98
2019-05-14T07:24:43.529Z,103879.41
2019-05-14T07:26:45.537Z,103874.94
2019-05-14T07:28:48.770Z,103867.76
2019-05-14T07:30:51.281Z,103875.44
2019-05-14T07:32:53.512Z,103886.89
2019-05-14T07:34:55.755Z,103876.38
2019-05-14T07:36:58.695Z,103878.33
2019-05-14T07:39:01.370Z,103884.83
2019-05-14T07:41:04.967Z,103882.36
2019-05-14T07:43:09.012Z,103867.44
2019-05-14T07:45:12.224Z,103868.98
2019-05-14T07:47:14.424Z,103868.56
2019-05-14T07:49:18.412Z,103865.77
2019-05-14T07:51:20.555Z,103858.92
2019-05-14T07:53:35.146Z,103857.83
2019-05-14T07:55:28.907Z,103859.17
2019-05-14T07:57:31.449Z,103852.12
2019-05-14T07:59:33.012Z,103856.33
2019-05-14T08:01:35.177Z,103855.78
2019-05-14T08:03:38.290Z,103858.13
2019-05-14T08:05:40.634Z,103871.47
2019-05-14T08:07:42.780Z,103851.52
2019-05-14T08:09:45.263Z,103849.63
2019-05-14T08:11:48.147Z,103849.70
2019-05-14T08:13:50.480Z,103846.94
2019-05-14T08:15:52.577Z,103831.55
2019-05-14T08:17:54.654Z,103833.44
2019-05-14T08:19:58.347Z,103837.53
2019-05-14T08:22:00.935Z,103824.38
2019-05-14T08:24:03.070Z,103830.01
2019-05-14T08:26:05.239Z,103828.89
2019-05-14T08:28:08.134Z,103824.80
2019-05-14T08:30:11.096Z,103820.34
2019-05-14T08:32:13.082Z,103817.33
2019-05-14T08:34:15.329Z,103808.77
2019-05-14T08:36:18.733Z,103816.95
2019-05-14T08:38:20.960Z,103819.18
2019-05-14T08:40:23.361Z,103813.92
2019-05-14T08:42:24.896Z,103808.39
2019-05-14T08:44:29.375Z,103807.25
2019-05-14T08:46:31.798Z,103813.91
2019-05-14T08:48:34.003Z,103792.49
2019-05-14T08:50:36.021Z,103794.27
2019-05-14T08:52:39.319Z,103800.23
2019-05-14T08:54:42.694Z,103785.64
2019-05-14T08:56:44.823Z,103778.39
2019-05-14T08:58:49.478Z,103787.63
2019-05-14T09:00:51.439Z,103783.17
2019-05-14T09:02:53.631Z,103776.32
2019-05-14T09:05:02.784Z,103782.61
2019-05-14T09:07:01.009Z,103784.86
2019-05-14T09:09:05.397Z,103781.95
2019-05-14T09:11:10.010Z,103787.19
2019-05-14T09:13:11.748Z,103780.97
2019-05-14T09:15:13.947Z,103775.14
2019-05-14T09:17:18.495Z,103769.28
2019-05-14T09:19:20.849Z,103772.55
2019-05-14T09:21:23.089Z,103778.45
2019-05-14T09:23:28.364Z,103768.59
2019-05-14T09:25:29.846Z,103772.95
2019-05-14T09:27:31.720Z,103779.67
2019-05-14T09:29:33.933Z,103773.15
2019-05-14T09:31:38.791Z,103767.45
2019-05-14T09:33:39.902Z,103760.77
2019-05-14T09:35:42.174Z,103773.83
2019-05-14T09:37:44.158Z,103754.49
2019-05-14T09:39:48.651Z,103760.06
2019-05-14T09:41:50.525Z,103761.58
2019-05-14T09:43:52.591Z,103760.66
2019-05-14T09:45:54.785Z,103758.48
2019-05-14T09:47:58.547Z,103761.33
2019-05-14T09:50:15.302Z,103753.17
2019-05-14T09:52:04.541Z,103752.31
2019-05-14T09:54:08.573Z,103748.36
2019-05-14T09:56:11.196Z,103740.02
2019-05-14T09:58:13.214Z,103745.92
2019-05-14T10:00:18.701Z,103741.52
2019-05-14T10:02:22.882Z,103745.16
2019-05-14T10:04:25.093Z,103745.05
2019-05-14T10:06:28.494Z,103734.38
2019-05-14T10:08:31.064Z,103737.52
2019-05-14T10:10:33.100Z,103727.16
2019-05-14T10:12:40.871Z,103729.69
2019-05-14T10:14:40.626Z,103722.47
2019-05-14T10:16:42.625Z,103712.95
2019-05-14T10:18:45.640Z,103705.80
2019-05-14T10:20:49.386Z,103695.50
2019-05-14T10:22:51.912Z,103704.71
2019-05-14T10:24:54.190Z,103707.49
2019-05-14T10:26:58.553Z,103708.52
2019-05-14T10:29:00.789Z,103695.89
2019-05-14T10:31:03.861Z,103689.24
2019-05-14T10:33:10.687Z,103691.83
2019-05-14T10:35:10.134Z,103694.02
2019-05-14T10:37:12.274Z,103687.74
2019-05-14T10:39:14.434Z,103679.20
2019-05-14T10:41:18.325Z,103679.77
2019-05-14T10:43:20.644Z,103683.80
2019-05-14T10:45:25.698Z,103689.58
2019-05-14T10:47:29.200Z,103689.43
2019-05-14T10:49:31.696Z,103682.90
2019-05-14T10:51:38.930Z,103679.80
2019-05-14T10:53:40.811Z,103687.87
2019-05-14T10:55:43.344Z,103680.00
2019-05-14T10:57:45.477Z,103672.02
2019-05-14T10:59:47.424Z,103673.86
2019-05-14T11:01:51.524Z,103663.98
2019-05-14T11:03:53.547Z,103660.27
2019-05-14T11:05:55.549Z,103669.41
2019-05-14T11:07:58.677Z,103659.59
2019-05-14T11:10:00.872Z,103652.00
2019-05-14T11:12:02.905Z,103659.84
2019-05-14T11:14:08.844Z,103657.37
2019-05-14T11:16:10.869Z,103653.42
2019-05-14T11:18:13.150Z,103661.13
2019-05-14T11:20:19.135Z,103649.58
2019-05-14T11:22:21.436Z,103640.58
2019-05-14T11:24:23.478Z,103630.05
2019-05-14T11:26:25.738Z,103635.81
2019-05-14T11:28:28.527Z,103643.41
2019-05-14T11:30:31.660Z,103627.95
2019-05-14T11:32:34.008Z,103621.12
2019-05-14T11:34:38.773Z,103620.94
2019-05-14T11:36:40.010Z,103623.13
2019-05-14T11:38:42.361Z,103623.08
2019-05-14T11:40:44.568Z,103629.99
2019-05-14T11:42:49.303Z,103612.36
2019-05-14T11:44:50.895Z,103622.47
2019-05-14T11:46:57.877Z,103618.76
2019-05-14T11:48:59.418Z,103613.61
2019-05-14T11:51:01.674Z,103620.26
2019-05-14T11:53:03.693Z,103610.08
2019-05-14T11:55:09.053Z,103607.11
2019-05-14T11:57:12.026Z,103603.78
2019-05-14T11:59:14.403Z,103601.49
2019-05-14T12:01:18.943Z,103595.11
2019-05-14T12:03:20.689Z,103592.63
2019-05-14T12:05:24.042Z,103594.55
2019-05-14T12:07:28.039Z,103595.61
2019-05-14T12:09:30.347Z,103590.44
2019-05-14T12:11:32.339Z,103596.16
2019-05-14T12:13:34.500Z,103589.23
2019-05-14T12:15:38.798Z,103586.84
2019-05-14T12:17:41.096Z,103588.79
2019-05-14T12:19:43.795Z,103580.23
2019-05-14T12:21:59.945Z,103571.67
2019-05-14T12:23:50.664Z,103572.06
2019-05-14T12:25:52.804Z,103568.63
2019-05-14T12:27:55.359Z,103569.56
2019-05-14T12:29:59.686Z,103555.80
2019-05-14T12:32:01.397Z,103570.41
2019-05-14T12:34:03.056Z,103558.84
2019-05-14T12:36:05.461Z,103559.95
2019-05-14T12:38:09.897Z,103558.44
2019-05-14T12:40:12.028Z,103545.59
2019-05-14T12:42:14.117Z,103540.95
2019-05-14T12:44:16.302Z,103540.25
2019-05-14T12:46:20.132Z,103546.13
2019-05-14T12:48:22.723Z,103545.29
2019-05-14T12:50:24.900Z,103543.41
2019-05-14T12:52:29.543Z,103534.08
2019-05-14T12:54:31.213Z,103555.40
2019-05-14T12:56:33.274Z,103547.57
2019-05-14T12:58:42.008Z,103543.20
2019-05-14T13:00:39.838Z,103554.27
2019-05-14T13:02:41.841Z,103548.61
2019-05-14T13:04:43.804Z,103556.22
2019-05-14T13:06:48.403Z,103541.25
2019-05-14T13:08:50.311Z,103535.43
2019-05-14T13:10:54.207Z,103525.55
2019-05-14T13:12:58.684Z,103520.13
2019-05-14T13:15:00.395Z,103513.21
2019-05-14T13:17:02.436Z,103504.59
2019-05-14T13:19:05.632Z,103508.50
2019-05-14T13:21:07.931Z,103502.69
2019-05-14T13:23:10.239Z,103488.20
2019-05-14T13:25:12.532Z,103499.39
2019-05-14T13:27:15.219Z,103497.78
2019-05-14T13:29:19.395Z,103483.78
2019-05-14T13:31:20.664Z,103485.73
2019-05-14T13:33:22.943Z,103486.25
2019-05-14T13:35:25.205Z,103475.17
2019-05-14T13:37:28.778Z,103471.53
2019-05-14T13:39:31.185Z,103474.81
2019-05-14T13:41:33.303Z,103477.60
2019-05-14T13:43:39.010Z,103470.91
2019-05-14T13:45:40.977Z,103476.69
2019-05-14T13:47:43.314Z,103467.53
2019-05-14T13:49:45.311Z,103470.83
2019-05-14T13:51:49.036Z,103465.80
2019-05-14T13:53:51.470Z,103468.70
2019-05-14T13:55:57.478Z,103464.63
2019-05-14T13:57:59.849Z,103463.63
2019-05-14T14:00:02.144Z,103468.02
2019-05-14T14:02:09.590Z,103469.40
2019-05-14T14:04:15.027Z,103463.71
2019-05-14T14:06:15.293Z,103463.73
2019-05-14T14:08:19.307Z,103461.83
2019-05-14T14:10:21.675Z,103449.41
2019-05-14T14:12:25.420Z,103445.56
2019-05-14T14:14:29.167Z,103457.47
2019-05-14T14:16:31.752Z,103448.23
2019-05-14T14:18:33.877Z,103453.89
2019-05-14T14:20:36.020Z,103447.34
2019-05-14T14:22:40.055Z,103457.94
2019-05-14T14:24:42.543Z,103454.08
2019-05-14T14:26:44.588Z,103446.55
2019-05-14T14:28:49.336Z,103445.52
2019-05-14T14:30:51.168Z,103438.22
2019-05-14T14:32:53.210Z,103436.09
2019-05-14T14:34:55.633Z,103442.39
2019-05-14T14:36:59.336Z,103446.91
2019-05-14T14:39:04.246Z,103451.47
2019-05-14T14:41:09.743Z,103436.09
2019-05-14T14:43:10.536Z,103416.47
2019-05-14T14:45:13.378Z,103432.25
2019-05-14T14:47:15.636Z,103425.12
2019-05-14T14:49:19.206Z,103420.31
2019-05-14T14:51:21.506Z,103411.52
2019-05-14T14:53:41.530Z,103415.12
2019-05-14T14:55:30.566Z,103413.91
2019-05-14T14:57:31.734Z,103402.53
2019-05-14T14:59:34.094Z,103398.61
2019-05-14T15:01:39.848Z,103404.26
2019-05-14T15:03:40.229Z,103402.87
2019-05-14T15:05:42.965Z,103398.84
2019-05-14T15:07:44.489Z,103401.05
2019-05-14T15:09:48.712Z,103392.16
2019-05-14T15:11:50.764Z,103391.88
2019-05-14T15:13:52.724Z,103395.69
2019-05-14T15:15:54.715Z,103392.86
2019-05-14T15:17:57.569Z,103390.95
2019-05-14T15:19:59.755Z,103384.88
2019-05-14T15:22:01.778Z,103373.19
2019-05-14T15:24:13.782Z,103384.89
2019-05-14T15:26:11.611Z,103376.75
2019-05-14T15:28:11.958Z,103372.25
2019-05-14T15:30:14.350Z,103374.86
2019-05-14T15:32:19.640Z,103368.45
2019-05-14T15:34:20.476Z,103366.84
2019-05-14T15:36:22.629Z,103367.10
2019-05-14T15:38:24.824Z,103364.73
2019-05-14T15:40:28.911Z,103355.27
2019-05-14T15:42:31.226Z,103354.73
2019-05-14T15:44:47.661Z,103369.25
2019-05-14T15:46:41.570Z,103365.61
2019-05-14T15:48:41.795Z,103351.48
2019-05-14T15:50:43.343Z,103353.23
2019-05-14T15:52:45.435Z,103348.14
2019-05-14T15:54:50.466Z,103353.62
2019-05-14T15:56:51.651Z,103354.14
2019-05-14T15:58:54.119Z,103356.41
2019-05-14T16:01:00.898Z,103343.06
2019-05-14T16:03:00.574Z,103342.80
2019-05-14T16:05:02.665Z,103346.13
2019-05-14T16:07:05.416Z,103350.80
2019-05-14T16:09:07.052Z,103337.81
2019-05-14T16:11:11.306Z,103333.22
2019-05-14T16:13:13.510Z,103333.59
2019-05-14T16:15:15.637Z,103332.86
2019-05-14T16:17:23.686Z,103324.16
2019-05-14T16:19:22.073Z,103325.47
2019-05-14T16:21:24.091Z,103324.02
2019-05-14T16:23:28.198Z,103328.14
2019-05-14T16:25:30.794Z,103324.78
2019-05-14T16:27:32.517Z,103326.41
2019-05-14T16:29:41.231Z,103317.59
2019-05-14T16:31:43.393Z,103310.36
2019-05-14T16:33:43.087Z,103315.27
2019-05-14T16:35:45.066Z,103307.01
2019-05-14T16:37:48.455Z,103308.56
2019-05-14T16:39:50.641Z,103316.94
2019-05-14T16:41:52.666Z,103305.38
2019-05-14T16:43:55.105Z,103309.86
2019-05-14T16:45:59.766Z,103298.19
2019-05-14T16:48:01.451Z,103295.71
2019-05-14T16:50:04.479Z,103300.35
2019-05-14T16:52:09.109Z,103296.72
2019-05-14T16:54:10.962Z,103289.95
2019-05-14T16:56:13.093Z,103285.98
2019-05-14T16:58:15.152Z,103284.37
2019-05-14T17:00:18.515Z,103289.52
2019-05-14T17:02:20.925Z,103290.55
2019-05-14T17:04:22.899Z,103280.28
2019-05-14T17:06:25.040Z,103291.79
2019-05-14T17:08:28.434Z,103283.35
2019-05-14T17:10:31.783Z,103285.19
2019-05-14T17:12:48.201Z,103283.38
2019-05-14T17:14:38.490Z,103284.86
2019-05-14T17:16:40.757Z,103294.11
2019-05-14T17:18:42.754Z,103287.69
2019-05-14T17:20:45.032Z,103279.75
2019-05-14T17:22:48.714Z,103285.98
2019-05-14T17:24:50.865Z,103282.47
2019-05-14T17:26:53.054Z,103280.20
2019-05-14T17:28:55.143Z,103278.46
2019-05-14T17:30:59.977Z,103283.27
2019-05-14T17:33:02.624Z,103277.17
2019-05-14T17:35:04.660Z,103280.47
2019-05-14T17:37:08.924Z,103274.18
2019-05-14T17:39:11.294Z,103276.52
2019-05-14T17:41:13.391Z,103271.63
2019-05-14T17:43:15.378Z,103265.20
2019-05-14T17:45:17.850Z,103268.73
2019-05-14T17:47:19.712Z,103265.50
2019-05-14T17:49:22.016Z,103266.52
2019-05-14T17:51:24.329Z,103260.25
2019-05-14T17:53:26.323Z,103260.92
2019-05-14T17:55:43.153Z,103256.23
2019-05-14T17:57:35.263Z,103256.02
2019-05-14T17:59:39.013Z,103250.83
2019-05-14T18:01:41.198Z,103256.58
2019-05-14T18:03:43.472Z,103249.28
2019-05-14T18:05:45.453Z,103240.41
2019-05-14T18:07:48.299Z,103252.66
2019-05-14T18:09:50.776Z,103249.02
2019-05-14T18:11:52.952Z,103251.09
2019-05-14T18:13:55.057Z,103244.53
2019-05-14T18:15:58.089Z,103248.42
2019-05-14T18:18:00.242Z,103243.18
2019-05-14T18:20:02.415Z,103237.05
2019-05-14T18:22:04.781Z,103240.79
2019-05-14T18:24:07.978Z,103236.98
2019-05-14T18:26:10.049Z,103243.59
2019-05-14T18:28:12.306Z,103232.80
2019-05-14T18:30:14.724Z,103233.39
2019-05-14T18:32:18.871Z,103240.52
2019-05-14T18:34:20.650Z,103234.34
2019-05-14T18:36:23.001Z,103230.41
2019-05-14T18:38:25.041Z,103225.77
2019-05-14T18:40:28.137Z,103224.39
2019-05-14T18:42:31.473Z,103221.89
2019-05-14T18:44:33.579Z,103217.27
2019-05-14T18:46:35.738Z,103228.30
2019-05-14T18:48:37.836Z,103225.00
2019-05-14T18:50:39.850Z,103233.30
2019-05-14T18:52:42.169Z,103229.68
2019-05-14T18:54:44.385Z,103230.59
2019-05-14T18:56:48.766Z,103227.52
2019-05-14T18:58:51.843Z,103235.30
2019-05-14T19:00:54.213Z,103231.13
2019-05-14T19:02:56.699Z,103235.34
2019-05-14T19:05:00.101Z,103236.20
2019-05-14T19:07:02.166Z,103229.06
2019-05-14T19:09:09.935Z,103224.30
2019-05-14T19:11:10.757Z,103222.63
2019-05-14T19:13:12.872Z,103227.41
2019-05-14T19:15:14.995Z,103234.52
2019-05-14T19:17:18.718Z,103230.64
2019-05-14T19:19:22.324Z,103232.58
2019-05-14T19:21:24.333Z,103239.23
2019-05-14T19:23:28.706Z,103238.95
2019-05-14T19:25:30.609Z,103244.77
2019-05-14T19:27:32.628Z,103244.44
2019-05-14T19:29:35.978Z,103250.88
2019-05-14T19:31:38.610Z,103255.34
2019-05-14T19:33:41.740Z,103259.23
2019-05-14T19:35:44.412Z,103263.68
2019-05-14T19:37:48.683Z,103267.81
2019-05-14T19:39:50.346Z,103261.73
2019-05-14T19:41:52.550Z,103263.39
2019-05-14T19:43:54.644Z,103277.80
2019-05-14T19:45:58.908Z,103264.02
2019-05-14T19:48:00.983Z,103267.89
2019-05-14T19:50:03.633Z,103263.52
2019-05-14T19:52:05.629Z,103267.97
2019-05-14T19:54:08.250Z,103272.93
2019-05-14T19:56:10.672Z,103268.81
2019-05-14T19:58:12.440Z,103271.86
2019-05-14T20:00:21.080Z,103266.05
2019-05-14T20:02:23.442Z,103263.25
2019-05-14T20:04:25.439Z,103261.88
2019-05-14T20:06:29.426Z,103267.18
2019-05-14T20:08:31.689Z,103260.83
2019-05-14T20:10:34.118Z,103255.33
2019-05-14T20:12:36.283Z,103255.58
2019-05-14T20:14:38.437Z,103249.80
2019-05-14T20:16:40.520Z,103253.13
2019-05-14T20:18:42.616Z,103253.11
2019-05-14T20:20:44.739Z,103250.36
2019-05-14T20:22:49.867Z,103254.21
2019-05-14T20:24:51.522Z,103253.95
2019-05-14T20:27:05.880Z,103246.52
2019-05-14T20:28:59.072Z,103252.61
2019-05-14T20:31:01.494Z,103262.58
2019-05-14T20:33:03.269Z,103262.03
2019-05-14T20:35:06.011Z,103250.68
2019-05-14T20:37:08.627Z,103261.47
2019-05-14T20:39:12.372Z,103260.94
2019-05-14T20:41:14.783Z,103261.47
2019-05-14T20:43:18.657Z,103256.23
2019-05-14T20:45:20.787Z,103259.02
2019-05-14T20:47:23.135Z,103254.05
2019-05-14T20:49:25.473Z,103246.31
2019-05-14T20:51:30.252Z,103254.31
2019-05-14T20:53:31.702Z,103251.85
2019-05-14T20:55:33.813Z,103252.13
2019-05-14T20:57:38.339Z,103247.98
2019-05-14T20:59:39.798Z,103243.56
2019-05-14T21:01:42.054Z,103247.43
2019-05-14T21:03:44.190Z,103245.52
2019-05-14T21:05:48.860Z,103248.53
2019-05-14T21:07:50.722Z,103243.84
2019-05-14T21:09:52.873Z,103242.18
2019-05-14T21:11:55.463Z,103231.42
2019-05-14T21:13:58.114Z,103230.85
2019-05-14T21:16:00.471Z,103239.98
2019-05-14T21:18:02.531Z,103230.59
2019-05-14T21:20:05.506Z,103230.88
2019-05-14T21:22:08.417Z,103233.90
2019-05-14T21:24:10.916Z,103229.77
2019-05-14T21:26:12.944Z,103228.92
2019-05-14T21:28:14.971Z,103225.34
2019-05-14T21:30:18.963Z,103221.77
2019-05-14T21:34:33.275Z,103221.50
2019-05-14T21:36:34.966Z,103224.50
2019-05-14T21:38:37.926Z,103221.50
2019-05-14T21:40:41.426Z,103217.05
2019-05-14T21:42:43.190Z,103215.41
2019-05-14T21:44:45.264Z,103218.72
2019-05-14T21:46:48.315Z,103226.16
2019-05-14T21:48:50.408Z,103221.19
2019-05-14T21:50:52.422Z,103218.71
2019-05-14T21:52:54.707Z,103210.66
2019-05-14T21:54:58.515Z,103217.28
2019-05-14T21:57:00.535Z,103213.42
2019-05-14T21:59:02.855Z,103210.11
2019-05-14T22:01:07.895Z,103207.90
2019-05-14T22:03:10.384Z,103210.66
2019-05-14T22:05:13.222Z,103203.75
2019-05-14T22:07:15.306Z,103211.47
2019-05-14T22:09:17.367Z,103207.61
2019-05-14T22:11:28.309Z,103204.58
2019-05-14T22:13:30.937Z,103203.20
2019-05-14T22:15:33.081Z,103205.92
2019-05-14T22:17:38.029Z,103199.86
2019-05-14T22:19:40.018Z,103199.89
2019-05-14T22:21:42.101Z,103199.03
2019-05-14T22:23:44.780Z,103199.59
2019-05-14T22:25:48.710Z,103205.38
2019-05-14T22:27:52.279Z,103195.45
2019-05-14T22:29:54.221Z,103194.62
2019-05-14T22:31:58.573Z,103201.56
2019-05-14T22:34:00.200Z,103198.23
2019-05-14T22:36:02.379Z,103200.99
2019-05-14T22:38:04.513Z,103205.10
2019-05-14T22:40:07.248Z,103202.62
2019-05-14T22:42:09.580Z,103207.30
2019-05-14T22:44:11.790Z,103207.83
2019-05-14T22:46:13.796Z,103204.52
2019-05-14T22:48:18.465Z,103202.03
2019-05-14T22:50:20.103Z,103203.41
2019-05-14T22:52:22.267Z,103206.45
2019-05-14T22:54:24.538Z,103202.86
2019-05-14T22:56:28.067Z,103204.27
2019-05-14T22:58:30.488Z,103205.90
2019-05-14T23:00:32.522Z,103210.58
2019-05-14T23:02:34.922Z,103216.92
2019-05-14T23:04:38.491Z,103213.30
2019-05-14T23:06:41.128Z,103210.55
2019-05-14T23:08:42.691Z,103204.52
2019-05-14T23:10:44.777Z,103207.52
2019-05-14T23:12:48.850Z,103208.06
2019-05-14T23:14:51.112Z,103205.86
2019-05-14T23:16:53.168Z,103210.55
2019-05-14T23:18:55.402Z,103207.79
2019-05-14T23:20:59.046Z,103209.99
2019-05-14T23:23:01.353Z,103207.79
2019-05-14T23:25:03.859Z,103202.23